Brisbin, PA (16620)

05:58 AM EDT die 30o June, anno 2015 (GMT -0400)
The Garden | | Change Station
CLOSE
Current Station
Personal Weather Stations
Location: Houtzdale, PA
Elevation: 1578 ft
Nearby Weather Stations

Elev 1578 ft 40.79 °N, 78.37 °W | Updated 2 seconds ago

Aequaliter Nubila
Aequaliter Nubila
60.3 °F
Feels Like 60.3 °F
N
0.0
Ventus Variabilis Ventus from Magis Zephyrus quam Auster
Gusts 0.0 mph

Hodie
High -- | Low -- °F
--% Chance of Precip.
Yesterday
High -- | Low -- °F
Precip. -- in
5:44 AM 8:49 PM
Waxing Gibbous, 97% visible
Pressio 29.88 in
Visibilitas 4.0 milia passuum
Clouds Plerumque Nubila 3300 ft
Aequaliter Nubila 5000 ft
Frigus in quo Ros apparet 60 °F
Umor 99%
Rainfall in
Snow Depth Not available.
UV 0.0 out of 12
Pollen 3.70 out of 12
Air Quality Not available.
Flu Activity Sporadic
METAR KFIG 300954Z AUTO 03006KT 4SM -RA BR BKN033 OVC050 15/14 A2989 RMK AO2 RAE0857B13 SLP116 P0010 T01500144

More Conditions Fewer Conditions

Pressio 29.88 in
Visibilitas 4.0 milia passuum
Clouds Plerumque Nubila 3300 ft
Aequaliter Nubila 5000 ft
Frigus in quo Ros apparet 60 °F
Umor 99%
Rainfall in
Snow Depth Not available.
UV 0.0 out of 12
Pollen 3.70 out of 12
Air Quality Not available.
Flu Activity Sporadic
METAR KFIG 300954Z AUTO 03006KT 4SM -RA BR BKN033 OVC050 15/14 A2989 RMK AO2 RAE0857B13 SLP116 P0010 T01500144

More Conditions Fewer Conditions

Nowcast | as of 3:56 am EDT on June 30, 2015

Isolated...mainly light rain showers will be across the region overnight. A rumble or two of thunder is also possible.

×

10-Day Weather Forecast

×

Almanac

Astronomy

Jun. 30, 2015 Rise Set
Actual Time
Civil Twilight
Nautical Twilight
Astronomical Twilight
Moon
Length Of Visible Light
Length of Day
Tomorrow will be .
, % of the Moon is Illuminated

Today's Extremes

State Highs State Lows

Community

WunderPhotos

Upload Photos

1,833,983 photos uploaded!

WunderBlogs® & News

Nearby

Air Quality

  Air Quality AQ Index Pollutant
Not available.

Snow Depth

Station Depth Elevation

Earthquake Activity

City Distance Mag. Time & Date
Minimum magnitude displayed is 2.5.

Coastal Water Temperatures

Locus Calor

Stations

Nearby Weather Stations

Station Location Temp Frigus Venti Frigus in quo Ros apparet Umor Ventus Precip. Elev Renovata Type